Time;durP1;ratioP1;P1;durP2;ratioP2;P2;SDS_P1;SDS_P2;PMS_P1;PMS_P2;Temp;Humidity;BMP_temperature;BMP_pressure;BME280_temperature;BME280_humidity;BME280_pressure;Samples;Min_cycle;Max_cycle;Signal;HPM_P1;HPM_P2
2022/06/16 00:01:24;;;;;;;22.25;12.75;;;;;;;16.11;100.00;95567.69;4989392;28;20050;-74
2022/06/16 00:03:50;;;;;;;19.83;11.85;;;;;;;16.09;100.00;95567.22;4989393;28;20145;-74
2022/06/16 00:06:15;;;;;;;19.05;12.15;;;;;;;16.07;100.00;95566.72;4988648;28;20420;-74
2022/06/16 00:08:40;;;;;;;18.48;12.43;;;;;;;16.03;100.00;95565.78;4987327;28;20048;-74
2022/06/16 00:11:19;;;;;;;21.60;12.48;;;;;;;16.01;100.00;95557.31;4987496;28;20043;-74
2022/06/16 00:13:46;;;;;;;25.38;13.27;;;;;;;15.94;100.00;95556.97;4988843;28;20062;-74
2022/06/16 00:16:12;;;;;;;21.05;11.90;;;;;;;15.85;100.00;95558.78;4988545;28;20046;-73
2022/06/16 00:18:39;;;;;;;18.98;11.82;;;;;;;15.80;100.00;95550.94;4987600;28;20106;-73
2022/06/16 00:21:05;;;;;;;20.75;13.32;;;;;;;15.82;100.00;95554.84;4988125;28;20042;-73
2022/06/16 00:23:32;;;;;;;21.85;12.38;;;;;;;15.83;100.00;95552.97;4988988;28;20077;-74
2022/06/16 00:25:58;;;;;;;21.30;12.95;;;;;;;15.79;100.00;95554.66;4988296;28;20119;-74
2022/06/16 00:28:24;;;;;;;19.38;13.05;;;;;;;15.82;100.00;95560.16;4988037;28;20567;-74
2022/06/16 00:30:49;;;;;;;19.77;12.40;;;;;;;15.89;100.00;95559.75;4988118;28;20038;-74
2022/06/16 00:33:15;;;;;;;17.75;12.20;;;;;;;15.77;100.00;95553.09;4987700;28;20041;-74
2022/06/16 00:35:41;;;;;;;17.25;11.82;;;;;;;15.63;100.00;95556.84;4986816;28;20065;-74
2022/06/16 00:38:07;;;;;;;18.15;12.90;;;;;;;15.62;100.00;95556.09;4987937;28;20046;-74
2022/06/16 00:40:32;;;;;;;20.35;13.32;;;;;;;15.64;100.00;95559.22;4990131;28;20057;-74
2022/06/16 00:42:57;;;;;;;22.75;13.38;;;;;;;15.68;100.00;95557.53;4991869;28;20066;-74
2022/06/16 00:45:51;;;;;;;19.88;13.40;;;;;;;15.65;100.00;95555.47;4991693;28;20591;-74
2022/06/16 00:48:43;;;;;;;22.27;13.25;;;;;;;15.70;100.00;95550.06;4991659;28;20085;-73
2022/06/16 00:51:13;;;;;;;20.10;13.18;;;;;;;15.68;100.00;95554.88;5002130;28;20093;-74
2022/06/16 00:53:39;;;;;;;22.75;12.30;;;;;;;15.64;100.00;95553.91;4991256;28;20121;-74
2022/06/16 00:56:07;;;;;;;20.45;12.32;;;;;;;15.68;100.00;95559.41;4992136;28;20101;-74
2022/06/16 00:58:36;;;;;;;21.55;12.70;;;;;;;15.63;100.00;95562.97;4988185;28;20042;-74
2022/06/16 01:01:02;;;;;;;20.58;12.50;;;;;;;15.59;100.00;95562.00;4990095;28;20057;-74
2022/06/16 01:06:25;;;;;;;20.48;12.73;;;;;;;15.49;100.00;95554.25;4982511;28;20105;-74
2022/06/16 01:09:10;;;;;;;18.27;13.23;;;;;;;15.52;100.00;95558.97;4987863;28;20286;-74
2022/06/16 01:14:49;;;;;;;21.20;12.48;;;;;;;15.60;100.00;95563.53;4980688;28;20065;-76
2022/06/16 01:17:41;;;;;;;14.40;11.55;;;;;;;15.61;100.00;95554.50;4968274;28;20054;-75
2022/06/16 01:20:41;;;;;;;18.52;12.20;;;;;;;15.61;100.00;95548.44;4979906;28;20046;-75
2022/06/16 01:23:27;;;;;;;20.63;11.70;;;;;;;15.44;100.00;95554.38;4985411;28;20405;-76
2022/06/16 01:26:11;;;;;;;17.23;11.88;;;;;;;15.46;100.00;95552.19;5001574;28;20117;-76
2022/06/16 01:28:46;;;;;;;17.85;11.88;;;;;;;15.33;100.00;95549.28;4983400;28;20046;-75
2022/06/16 01:31:28;;;;;;;17.52;11.90;;;;;;;15.28;100.00;95546.75;4990396;28;20046;-75
2022/06/16 01:34:21;;;;;;;18.25;11.75;;;;;;;15.19;100.00;95553.84;4990545;28;20049;-75
2022/06/16 01:37:33;;;;;;;17.60;12.25;;;;;;;15.09;100.00;95554.06;4989157;28;20034;-75
2022/06/16 01:40:17;;;;;;;21.05;12.15;;;;;;;14.98;100.00;95564.84;4980586;28;20069;-75
2022/06/16 01:42:50;;;;;;;16.73;11.55;;;;;;;15.01;100.00;95564.28;4989332;28;20046;-74
2022/06/16 01:45:21;;;;;;;21.65;11.77;;;;;;;14.98;100.00;95554.25;4990452;28;20046;-75
2022/06/16 01:47:50;;;;;;;16.98;11.95;;;;;;;15.01;100.00;95556.31;4991345;28;20049;-74
2022/06/16 01:50:24;;;;;;;16.80;11.77;;;;;;;15.15;100.00;95558.16;4983971;28;20057;-74
2022/06/16 01:53:00;;;;;;;16.52;11.70;;;;;;;15.00;100.00;95552.09;4985654;28;20046;-74
2022/06/16 01:55:32;;;;;;;14.30;11.13;;;;;;;14.90;100.00;95554.94;4990430;28;20101;-74
2022/06/16 01:58:09;;;;;;;17.23;11.35;;;;;;;14.86;100.00;95556.63;4990178;28;20065;-74
2022/06/16 02:00:36;;;;;;;18.92;11.77;;;;;;;14.79;100.00;95556.22;4991123;28;20054;-74
2022/06/16 02:03:09;;;;;;;17.50;11.25;;;;;;;14.82;100.00;95553.75;4989045;28;20050;-74
2022/06/16 02:05:48;;;;;;;22.25;12.00;;;;;;;14.71;100.00;95547.88;4990875;28;20149;-74
2022/06/16 02:08:37;;;;;;;18.08;11.30;;;;;;;14.82;100.00;95540.50;4989475;28;20053;-74
2022/06/16 02:11:12;;;;;;;18.42;10.57;;;;;;;14.80;100.00;95537.38;4982982;28;20043;-74
2022/06/16 02:13:48;;;;;;;17.20;11.73;;;;;;;14.75;100.00;95544.66;4987916;28;20050;-75
2022/06/16 02:16:19;;;;;;;18.10;11.35;;;;;;;14.82;100.00;95545.03;4990703;28;20047;-75
2022/06/16 02:18:45;;;;;;;16.40;10.95;;;;;;;14.81;100.00;95543.47;4986914;28;20050;-75
2022/06/16 02:21:23;;;;;;;18.77;11.35;;;;;;;14.71;100.00;95539.13;4988651;28;20101;-75
2022/06/16 02:23:49;;;;;;;19.15;11.32;;;;;;;14.77;100.00;95542.47;4989176;28;20042;-74
2022/06/16 02:26:15;;;;;;;18.23;10.63;;;;;;;14.65;100.00;95543.78;4990058;28;20051;-75
2022/06/16 02:28:44;;;;;;;15.40;11.35;;;;;;;14.71;100.00;95542.59;4987909;28;20042;-74
2022/06/16 02:31:09;;;;;;;18.73;11.63;;;;;;;14.55;100.00;95546.56;4989367;28;20038;-75
2022/06/16 02:33:50;;;;;;;17.25;11.20;;;;;;;14.56;100.00;95546.28;4989583;28;20049;-73
2022/06/16 02:36:23;;;;;;;18.35;11.05;;;;;;;14.58;100.00;95545.97;5004006;28;20543;-74
2022/06/16 02:38:59;;;;;;;15.35;11.20;;;;;;;14.60;100.00;95543.84;4986197;28;20407;-73
2022/06/16 02:41:47;;;;;;;19.65;12.05;;;;;;;14.61;100.00;95540.13;4989975;28;20042;-75
2022/06/16 02:44:26;;;;;;;17.38;10.88;;;;;;;14.58;100.00;95535.38;4985695;28;20070;-74
2022/06/16 02:47:12;;;;;;;18.52;11.40;;;;;;;14.57;100.00;95541.78;4989395;28;20057;-74
2022/06/16 02:49:46;;;;;;;19.45;11.60;;;;;;;14.47;100.00;95539.31;4988614;28;20035;-74
2022/06/16 02:52:16;;;;;;;16.70;11.38;;;;;;;14.45;100.00;95536.16;4988997;28;20073;-75
2022/06/16 02:55:10;;;;;;;17.40;11.43;;;;;;;14.41;100.00;95540.47;4986881;28;20069;-75
2022/06/16 02:57:44;;;;;;;19.23;11.30;;;;;;;14.36;100.00;95544.00;4988411;28;20522;-74
2022/06/16 03:00:14;;;;;;;20.43;11.07;;;;;;;14.29;100.00;95539.06;4990755;28;20042;-75
2022/06/16 03:02:41;;;;;;;16.80;11.68;;;;;;;14.29;100.00;95523.19;4988673;28;20042;-74
2022/06/16 03:05:08;;;;;;;16.10;10.90;;;;;;;14.25;100.00;95522.25;4989206;28;20046;-75
2022/06/16 03:07:35;;;;;;;15.25;10.57;;;;;;;14.21;100.00;95526.53;4988128;28;20046;-74
2022/06/16 03:10:02;;;;;;;16.45;11.52;;;;;;;14.20;100.00;95517.03;4985625;28;20043;-75
2022/06/16 03:12:28;;;;;;;14.70;10.75;;;;;;;14.17;100.00;95514.97;4987980;28;20085;-74
2022/06/16 03:14:53;;;;;;;18.95;10.98;;;;;;;14.24;100.00;95509.28;5003324;28;20034;-75
2022/06/16 03:17:19;;;;;;;13.73;10.60;;;;;;;14.30;100.00;95519.47;4983593;28;20594;-74
2022/06/16 03:19:44;;;;;;;16.15;10.55;;;;;;;14.34;100.00;95515.19;4987276;28;20934;-75
2022/06/16 03:22:11;;;;;;;22.65;10.95;;;;;;;14.27;100.00;95514.78;4989239;28;20069;-74
2022/06/16 03:24:37;;;;;;;17.80;10.63;;;;;;;14.28;100.00;95515.56;4986454;28;20232;-75
2022/06/16 03:27:04;;;;;;;16.27;10.63;;;;;;;14.26;100.00;95518.50;4988403;28;20584;-75
2022/06/16 03:29:29;;;;;;;18.40;10.20;;;;;;;14.34;100.00;95515.19;4989080;28;20046;-75
2022/06/16 03:31:55;;;;;;;16.13;10.55;;;;;;;14.26;100.00;95517.72;4989032;28;20038;-74
2022/06/16 03:34:22;;;;;;;13.85;10.20;;;;;;;14.20;100.00;95524.97;4988987;28;20043;-74
2022/06/16 03:36:47;;;;;;;19.27;11.18;;;;;;;14.22;100.00;95525.44;4988317;28;20038;-74
2022/06/16 03:39:13;;;;;;;20.40;10.30;;;;;;;14.26;100.00;95523.78;4988966;28;20105;-74
2022/06/16 03:41:39;;;;;;;17.38;10.70;;;;;;;14.32;100.00;95527.94;4988141;28;20424;-74
2022/06/16 03:44:04;;;;;;;16.63;10.65;;;;;;;14.17;100.00;95520.25;4988985;28;20050;-73
2022/06/16 03:46:30;;;;;;;17.08;10.07;;;;;;;14.13;100.00;95524.56;4984782;28;20574;-74
2022/06/16 03:48:55;;;;;;;17.27;10.80;;;;;;;14.18;100.00;95527.13;4997205;28;20038;-74
2022/06/16 03:51:21;;;;;;;16.65;10.82;;;;;;;14.16;100.00;95526.63;4988682;28;20074;-74
2022/06/16 03:53:46;;;;;;;17.58;10.43;;;;;;;14.21;100.00;95526.53;4988728;28;20141;-74
2022/06/16 03:56:12;;;;;;;19.02;10.63;;;;;;;14.28;100.00;95531.44;4988954;28;20143;-75
2022/06/16 03:58:39;;;;;;;16.52;9.82;;;;;;;14.35;100.00;95531.84;4987218;28;20043;-74
2022/06/16 04:01:05;;;;;;;15.93;10.38;;;;;;;14.41;100.00;95535.19;4989451;28;20038;-74
2022/06/16 04:06:16;;;;;;;20.77;11.05;;;;;;;14.47;100.00;95528.72;4988902;28;20642;-74
2022/06/16 04:08:42;;;;;;;18.60;10.70;;;;;;;14.50;100.00;95533.44;4984263;28;20409;-74
2022/06/16 04:11:26;;;;;;;17.10;10.57;;;;;;;14.49;100.00;95531.84;4985102;28;20042;-74
2022/06/16 04:13:54;;;;;;;14.75;10.43;;;;;;;14.54;100.00;95534.41;4986943;28;20047;-74
2022/06/16 04:16:20;;;;;;;16.67;10.75;;;;;;;14.59;100.00;95536.97;4990778;28;20077;-73
2022/06/16 04:18:45;;;;;;;17.52;10.80;;;;;;;14.67;100.00;95538.97;4992755;28;20129;-74
2022/06/16 04:21:12;;;;;;;16.05;10.25;;;;;;;14.80;100.00;95536.63;4991114;28;20045;-74
2022/06/16 04:23:39;;;;;;;13.63;9.55;;;;;;;14.98;100.00;95543.63;4991557;28;20054;-74
2022/06/16 04:26:05;;;;;;;15.63;10.20;;;;;;;15.07;100.00;95541.09;5002124;28;20041;-75
2022/06/16 04:28:31;;;;;;;14.63;9.98;;;;;;;15.14;100.00;95535.38;4990939;28;20050;-75
2022/06/16 04:30:57;;;;;;;16.65;10.45;;;;;;;15.19;100.00;95543.25;4991638;28;20046;-75
2022/06/16 04:33:23;;;;;;;17.05;10.02;;;;;;;15.19;100.00;95543.25;4992525;28;20104;-76
2022/06/16 04:35:49;;;;;;;17.88;9.75;;;;;;;15.27;100.00;95533.78;4990825;28;20042;-73
2022/06/16 04:38:14;;;;;;;14.75;9.80;;;;;;;15.29;100.00;95537.72;4991462;28;20038;-72
2022/06/16 04:40:40;;;;;;;15.00;10.18;;;;;;;15.27;100.00;95533.78;4990214;28;20054;-73
2022/06/16 04:43:06;;;;;;;17.08;9.70;;;;;;;15.26;100.00;95527.72;4991388;28;20042;-73
2022/06/16 04:45:32;;;;;;;15.48;9.93;;;;;;;15.25;100.00;95520.81;4992072;28;20058;-73
2022/06/16 04:47:58;;;;;;;14.23;9.43;;;;;;;15.25;100.00;95520.81;4991904;28;20500;-73
2022/06/16 04:50:23;;;;;;;17.52;10.05;;;;;;;15.27;100.00;95516.03;4991461;28;20121;-73
2022/06/16 04:52:49;;;;;;;19.33;10.52;;;;;;;15.35;100.00;95520.59;4991050;28;20038;-76
2022/06/16 04:55:16;;;;;;;14.57;9.77;;;;;;;15.45;100.00;95524.13;4991733;28;20070;-73
2022/06/16 04:57:42;;;;;;;17.30;9.05;;;;;;;15.63;100.00;95536.44;4992373;28;20330;-73
2022/06/16 05:00:11;;;;;;;14.32;9.88;;;;;;;15.76;100.00;95530.28;4991360;28;20038;-73
2022/06/16 05:02:37;;;;;;;14.93;9.48;;;;;;;15.79;100.00;95528.94;4991331;28;20057;-72
2022/06/16 05:05:03;;;;;;;14.75;9.52;;;;;;;15.85;100.00;95526.94;4988657;28;20042;-73
2022/06/16 05:07:28;;;;;;;16.25;9.65;;;;;;;15.96;100.00;95532.78;4991376;28;20535;-75
2022/06/16 05:09:53;;;;;;;17.00;8.98;;;;;;;16.09;100.00;95532.72;4989785;28;20161;-76
2022/06/16 05:12:19;;;;;;;15.43;9.23;;;;;;;16.31;100.00;95528.44;4989340;28;20428;-74
2022/06/16 05:14:44;;;;;;;17.20;9.07;;;;;;;16.34;100.00;95548.31;4990948;28;20101;-73
2022/06/16 05:17:10;;;;;;;14.80;9.30;;;;;;;16.32;100.00;95539.84;4991076;28;20401;-74
2022/06/16 05:19:35;;;;;;;14.10;9.30;;;;;;;16.40;100.00;95537.22;4989395;28;20782;-73
2022/06/16 05:22:05;;;;;;;16.20;9.75;;;;;;;16.44;100.00;95540.84;4991267;28;20046;-72
2022/06/16 05:24:31;;;;;;;18.95;9.43;;;;;;;16.45;100.00;95539.75;4987996;28;20043;-72
2022/06/16 05:26:57;;;;;;;14.05;9.13;;;;;;;16.44;100.00;95543.50;4990460;28;20456;-72
2022/06/16 05:29:23;;;;;;;12.45;9.50;;;;;;;16.55;100.00;95541.38;4990517;28;20042;-72
2022/06/16 05:31:48;;;;;;;16.73;9.73;;;;;;;16.60;100.00;95537.78;4990925;28;20045;-72
2022/06/16 05:34:15;;;;;;;15.80;9.35;;;;;;;16.68;100.00;95542.34;4990918;28;20489;-72
2022/06/16 05:36:43;;;;;;;13.85;9.43;;;;;;;16.75;100.00;95552.53;4990340;28;20050;-72
2022/06/16 05:39:08;;;;;;;20.48;9.35;;;;;;;16.80;100.00;95539.88;4987210;28;20038;-72
2022/06/16 05:41:34;;;;;;;15.13;9.55;;;;;;;16.87;100.00;95549.31;4988833;28;20131;-72
2022/06/16 05:44:00;;;;;;;17.40;9.63;;;;;;;17.03;100.00;95547.03;4990345;28;20049;-72
2022/06/16 05:46:25;;;;;;;20.83;9.20;;;;;;;17.35;100.00;95558.34;4990673;28;20455;-72
2022/06/16 05:48:52;;;;;;;15.60;8.60;;;;;;;18.04;94.13;95562.88;4990215;28;20096;-71
2022/06/16 05:51:18;;;;;;;12.60;8.65;;;;;;;18.80;87.07;95556.09;4990044;28;20161;-72
2022/06/16 05:53:44;;;;;;;17.45;8.70;;;;;;;19.32;85.30;95559.59;4990761;28;20452;-72
2022/06/16 05:56:11;;;;;;;21.13;8.95;;;;;;;19.54;83.13;95561.97;4990430;28;20053;-73
2022/06/16 05:58:36;;;;;;;17.58;8.13;;;;;;;19.77;80.64;95568.84;4990756;28;20042;-72
2022/06/16 06:01:02;;;;;;;19.63;8.20;;;;;;;19.88;80.07;95576.19;4991443;28;20054;-73
2022/06/16 06:03:28;;;;;;;16.70;8.05;;;;;;;19.98;79.13;95574.22;4989080;28;20038;-72
2022/06/16 06:05:54;;;;;;;12.45;7.80;;;;;;;20.01;79.08;95573.53;4988834;28;20065;-72
2022/06/16 06:16:40;;;;;;;12.77;7.95;;;;;;;20.00;78.57;95572.78;4984553;28;20109;-73
2022/06/16 06:19:23;;;;;;;24.67;8.30;;;;;;;20.11;78.64;95570.47;4988951;28;20126;-72
2022/06/16 06:22:19;;;;;;;13.70;7.70;;;;;;;20.21;78.23;95577.28;4990332;28;20042;-73
2022/06/16 06:24:49;;;;;;;14.82;8.02;;;;;;;20.49;76.36;95566.78;4988173;28;20058;-74
2022/06/16 06:27:28;;;;;;;12.77;7.93;;;;;;;20.72;75.87;95569.09;4990503;28;20500;-75
2022/06/16 06:29:54;;;;;;;16.95;8.32;;;;;;;20.86;75.69;95572.22;4990742;28;20100;-77
2022/06/16 06:32:22;;;;;;;25.58;8.90;;;;;;;21.15;75.33;95581.13;4989549;28;20428;-75
2022/06/16 06:34:48;;;;;;;18.45;8.13;;;;;;;21.13;76.33;95572.63;4989862;28;20045;-75
2022/06/16 06:37:16;;;;;;;13.50;7.93;;;;;;;21.24;74.66;95573.75;4990160;28;20038;-75
2022/06/16 06:39:42;;;;;;;15.73;7.90;;;;;;;21.43;73.36;95575.84;4989023;28;20528;-75
2022/06/16 06:42:08;;;;;;;15.20;8.52;;;;;;;21.52;73.01;95573.06;4981427;28;20041;-75
2022/06/16 06:44:35;;;;;;;17.67;8.00;;;;;;;21.50;72.22;95569.91;4988168;28;20494;-77
2022/06/16 06:47:02;;;;;;;14.27;8.05;;;;;;;21.59;72.30;95562.56;4986190;28;20042;-77
2022/06/16 06:49:28;;;;;;;15.48;8.05;;;;;;;21.82;71.10;95564.72;4989432;28;20042;-75
2022/06/16 06:51:54;;;;;;;19.13;7.93;;;;;;;21.89;70.96;95567.59;4990421;28;20038;-75
2022/06/16 06:54:20;;;;;;;16.23;8.13;;;;;;;22.08;70.28;95564.28;4987459;28;20566;-75
2022/06/16 06:56:47;;;;;;;16.30;8.55;;;;;;;22.18;72.08;95575.63;4989307;28;20108;-75
2022/06/16 06:59:16;;;;;;;19.38;8.75;;;;;;;22.30;71.90;95576.34;4988086;28;20092;-78
2022/06/16 07:01:42;;;;;;;24.48;8.27;;;;;;;22.43;70.53;95587.06;4987146;28;20057;-76
2022/06/16 07:04:07;;;;;;;19.90;8.18;;;;;;;22.52;69.71;95590.34;4989276;28;20038;-76
2022/06/16 07:06:34;;;;;;;19.40;8.27;;;;;;;22.49;69.20;95585.66;4988422;28;20069;-76
2022/06/16 07:09:00;;;;;;;16.13;8.35;;;;;;;22.44;70.90;95602.00;4987243;28;20409;-76
2022/06/16 07:11:25;;;;;;;14.93;8.68;;;;;;;22.25;71.38;95597.25;4990069;28;20042;-75
2022/06/16 07:13:51;;;;;;;21.42;8.13;;;;;;;22.20;69.47;95606.34;4987164;28;20532;-76
2022/06/16 07:16:18;;;;;;;21.90;8.07;;;;;;;22.25;69.83;95603.41;4985519;28;20049;-75
2022/06/16 07:18:45;;;;;;;15.43;8.05;;;;;;;22.04;70.93;95597.44;4988466;28;20042;-76
2022/06/16 07:21:11;;;;;;;16.67;8.05;;;;;;;22.10;71.05;95596.13;4982529;28;20030;-78
2022/06/16 07:23:36;;;;;;;18.85;7.78;;;;;;;22.02;70.73;95597.78;4987741;28;20046;-76
2022/06/16 07:26:03;;;;;;;16.77;8.27;;;;;;;21.96;69.96;95597.25;4988429;28;20124;-76
2022/06/16 07:28:28;;;;;;;19.67;8.25;;;;;;;22.03;69.01;95607.41;4989543;28;20085;-76
2022/06/16 07:30:54;;;;;;;16.75;7.97;;;;;;;21.93;70.12;95611.34;4985426;28;20034;-75
2022/06/16 07:33:19;;;;;;;19.67;7.93;;;;;;;22.02;69.53;95607.75;4987995;28;20544;-76
2022/06/16 07:35:45;;;;;;;20.13;7.93;;;;;;;22.03;70.55;95609.31;4988788;28;20051;-75
2022/06/16 07:38:11;;;;;;;14.18;7.10;;;;;;;22.16;69.52;95605.47;4989810;28;20054;-74
2022/06/16 07:40:38;;;;;;;18.38;7.95;;;;;;;22.42;68.48;95596.22;4986958;28;20046;-75
2022/06/16 07:43:04;;;;;;;16.63;7.50;;;;;;;22.52;69.01;95576.94;4988055;28;20054;-76
2022/06/16 07:45:30;;;;;;;19.80;8.43;;;;;;;22.70;68.68;95576.59;4987645;28;20047;-75
2022/06/16 07:47:59;;;;;;;18.27;7.78;;;;;;;22.70;69.30;95585.44;4988446;28;20046;-75
2022/06/16 07:50:24;;;;;;;14.32;7.60;;;;;;;22.98;67.07;95590.69;4992780;28;20054;-75
2022/06/16 07:52:50;;;;;;;20.88;7.93;;;;;;;23.04;65.83;95568.97;5000272;28;20041;-76
2022/06/16 07:55:18;;;;;;;15.95;7.93;;;;;;;22.79;67.42;95571.84;4989193;28;20046;-78
2022/06/16 07:57:46;;;;;;;16.60;7.57;;;;;;;22.86;67.71;95574.69;4991437;28;20529;-76
2022/06/16 08:00:17;;;;;;;14.63;7.43;;;;;;;22.89;66.96;95565.19;4992899;28;20496;-75
2022/06/16 08:02:42;;;;;;;17.70;8.43;;;;;;;22.80;68.26;95562.66;4991691;28;20046;-76
2022/06/16 08:05:12;;;;;;;13.10;7.60;;;;;;;22.73;66.93;95567.84;4992275;28;20038;-76
2022/06/16 08:07:40;;;;;;;15.30;7.97;;;;;;;22.75;68.36;95568.28;4992364;28;20042;-75
2022/06/16 08:10:08;;;;;;;15.25;7.65;;;;;;;23.06;67.12;95569.38;4992682;28;20487;-75
2022/06/16 08:12:34;;;;;;;16.70;7.38;;;;;;;23.27;66.79;95569.91;4992505;28;20526;-77
2022/06/16 08:15:00;;;;;;;16.38;7.22;;;;;;;23.47;64.10;95568.03;4992979;28;20052;-76
2022/06/16 08:17:32;;;;;;;12.75;7.00;;;;;;;23.64;62.05;95572.22;4992169;28;20046;-77
2022/06/16 08:19:59;;;;;;;11.65;7.20;;;;;;;23.67;64.15;95576.88;4993099;28;20061;-75
2022/06/16 08:22:26;;;;;;;16.90;7.30;;;;;;;23.97;63.17;95584.44;4992007;28;20043;-77
2022/06/16 08:24:52;;;;;;;13.20;7.15;;;;;;;24.16;62.44;95596.31;4992301;28;20049;-76
2022/06/16 08:27:21;;;;;;;13.18;7.00;;;;;;;24.20;59.68;95597.16;4992499;28;20031;-75
2022/06/16 08:29:47;;;;;;;14.85;6.97;;;;;;;24.07;60.08;95599.22;4982748;28;20500;-75
2022/06/16 08:32:15;;;;;;;21.42;7.43;;;;;;;24.24;60.94;95603.38;4992323;28;20043;-77
2022/06/16 08:34:41;;;;;;;17.58;7.35;;;;;;;24.15;60.38;95610.88;4996758;28;20042;-79
2022/06/16 08:37:07;;;;;;;13.52;6.82;;;;;;;24.24;59.13;95611.44;4995967;28;20042;-82
2022/06/16 08:39:32;;;;;;;13.32;6.68;;;;;;;24.19;57.66;95614.41;4990063;28;20105;-78
2022/06/16 08:42:09;;;;;;;14.98;7.38;;;;;;;24.25;58.61;95618.41;4993077;28;20042;-78
2022/06/16 08:44:52;;;;;;;15.65;6.95;;;;;;;24.25;60.06;95637.22;4993356;28;20046;-77
2022/06/16 08:47:19;;;;;;;17.80;6.82;;;;;;;24.33;59.78;95638.13;4989513;28;20042;-80
2022/06/16 08:49:45;;;;;;;21.05;6.80;;;;;;;24.35;61.26;95628.56;4989493;28;20460;-75
2022/06/16 08:52:16;;;;;;;14.38;7.18;;;;;;;24.44;60.00;95635.63;4986832;28;20050;-73
2022/06/16 08:54:57;;;;;;;16.67;7.50;;;;;;;24.50;60.36;95626.91;4991698;28;20454;-75
2022/06/16 08:57:56;;;;;;;13.32;6.75;;;;;;;24.55;60.42;95623.16;4989851;28;20039;-74
2022/06/16 09:00:46;;;;;;;18.63;7.40;;;;;;;24.55;61.51;95629.31;5004727;28;20077;-76
2022/06/16 09:03:39;;;;;;;15.25;7.15;;;;;;;25.07;59.62;95624.44;4989269;28;20042;-75
2022/06/16 09:06:23;;;;;;;17.48;7.20;;;;;;;25.08;58.74;95623.31;4989567;28;20060;-74
2022/06/16 09:09:13;;;;;;;19.38;7.18;;;;;;;25.15;58.86;95621.88;4986828;28;20543;-74
2022/06/16 09:11:54;;;;;;;20.45;7.40;;;;;;;25.33;57.35;95622.97;4989648;28;20039;-75
2022/06/16 09:17:50;;;;;;;15.70;7.30;;;;;;;25.23;59.41;95628.94;4979534;28;20121;-75
2022/06/16 09:20:43;;;;;;;21.95;7.03;;;;;;;25.26;59.70;95622.81;4987572;28;20126;-76
2022/06/16 09:23:40;;;;;;;12.93;6.43;;;;;;;25.77;58.43;95625.13;4990016;28;20555;-74
2022/06/16 09:26:31;;;;;;;15.32;6.93;;;;;;;25.85;57.03;95636.00;4973787;28;20140;-76
2022/06/16 09:29:09;;;;;;;15.02;6.60;;;;;;;25.70;55.88;95640.41;4988662;28;20068;-76
2022/06/16 09:31:40;;;;;;;17.13;7.25;;;;;;;26.16;55.25;95651.06;4989558;28;20038;-76
2022/06/16 09:34:16;;;;;;;14.80;6.78;;;;;;;25.99;56.42;95646.97;4989648;28;20042;-75
2022/06/16 09:36:49;;;;;;;34.47;11.05;;;;;;;25.86;57.30;95649.09;4989402;28;20432;-75
2022/06/16 09:39:26;;;;;;;55.50;14.80;;;;;;;26.06;58.15;95647.06;4991065;28;20496;-75
2022/06/16 09:44:57;;;;;;;18.23;8.32;;;;;;;25.92;59.97;95650.34;4991221;28;20053;-75
2022/06/16 09:47:29;;;;;;;21.58;9.73;;;;;;;25.73;59.07;95655.84;4990186;28;20057;-75
2022/06/16 09:50:05;;;;;;;25.58;10.77;;;;;;;25.71;60.07;95653.50;5005690;28;20042;-75
2022/06/16 09:52:37;;;;;;;22.38;9.45;;;;;;;25.51;61.18;95649.38;4991224;28;20043;-75
2022/06/16 09:55:20;;;;;;;20.08;9.85;;;;;;;25.69;60.83;95655.81;4991413;28;20038;-75
2022/06/16 09:57:52;;;;;;;22.88;10.25;;;;;;;25.65;60.25;95654.97;4990809;28;20053;-75
2022/06/16 10:00:20;;;;;;;35.70;13.07;;;;;;;25.67;61.84;95658.06;4997425;28;20160;-76
2022/06/16 10:02:51;;;;;;;17.17;8.70;;;;;;;25.85;62.50;95661.03;4995777;28;20046;-75
2022/06/16 10:05:37;;;;;;;25.60;8.48;;;;;;;26.29;58.93;95659.66;4991187;28;20404;-75
2022/06/16 10:08:21;;;;;;;25.02;10.18;;;;;;;26.27;59.34;95668.13;4990594;28;20046;-75
2022/06/16 10:10:53;;;;;;;13.97;7.60;;;;;;;26.35;56.65;95663.59;4990915;28;20079;-75
2022/06/16 10:13:27;;;;;;;17.23;7.45;;;;;;;26.37;57.50;95669.38;4989247;28;20292;-75
2022/06/16 10:16:02;;;;;;;;;;;;;;;26.31;57.63;95667.41;4991401;28;20046;-75
2022/06/16 10:18:27;;;;;;;17.63;6.68;;;;;;;26.10;57.68;95669.47;4990260;28;19976;-75
2022/06/16 10:20:53;;;;;;;25.50;7.43;;;;;;;26.53;56.92;95668.41;4991020;28;20496;-75
2022/06/16 10:23:27;;;;;;;18.55;6.80;;;;;;;26.88;55.66;95668.03;4990178;28;20042;-75
2022/06/16 10:26:03;;;;;;;14.02;6.90;;;;;;;26.69;54.91;95677.09;4990630;28;20050;-75
2022/06/16 10:28:40;;;;;;;19.83;6.82;;;;;;;26.57;55.47;95674.63;4990233;28;20038;-76
2022/06/16 10:31:07;;;;;;;13.13;6.07;;;;;;;26.34;54.91;95686.31;4990885;28;20093;-76
2022/06/16 10:33:35;;;;;;;12.15;6.38;;;;;;;26.04;55.49;95686.31;4990204;28;20491;-76
2022/06/16 10:36:07;;;;;;;13.95;6.38;;;;;;;25.93;56.66;95689.63;4990140;28;20198;-74
2022/06/16 10:38:37;;;;;;;21.23;6.20;;;;;;;25.68;65.22;95691.97;4990224;28;20046;-74
2022/06/16 10:41:23;;;;;;;14.15;6.75;;;;;;;25.23;65.04;95698.94;4990516;28;20054;-74
2022/06/16 10:43:53;;;;;;;14.05;6.50;;;;;;;24.97;69.16;95711.22;4988521;28;20089;-74
2022/06/16 10:46:28;;;;;;;11.52;6.32;;;;;;;24.85;65.79;95705.97;4989900;28;20488;-74
2022/06/16 10:48:56;;;;;;;17.45;6.97;;;;;;;24.79;65.00;95707.41;4989975;28;20047;-75
2022/06/16 10:51:24;;;;;;;19.75;7.38;;;;;;;24.84;70.26;95707.09;4988520;28;20134;-75
2022/06/16 10:54:10;;;;;;;16.70;7.80;;;;;;;24.96;67.61;95695.41;4985732;28;20043;-75
2022/06/16 10:56:38;;;;;;;15.60;7.95;;;;;;;25.26;70.04;95692.84;4980028;28;20050;-75
2022/06/16 10:59:23;;;;;;;21.52;7.55;;;;;;;25.61;68.22;95691.84;4989327;28;20038;-75
2022/06/16 11:01:53;;;;;;;15.60;7.60;;;;;;;26.19;65.51;95681.88;5000933;28;20049;-75
2022/06/16 11:04:20;;;;;;;16.58;7.45;;;;;;;26.82;64.81;95690.31;4990036;28;20537;-75
2022/06/16 11:06:49;;;;;;;14.52;6.95;;;;;;;27.14;59.54;95691.41;4987739;28;20044;-75
2022/06/16 11:09:20;;;;;;;14.07;7.10;;;;;;;27.79;59.27;95685.75;4982112;28;20034;-75
2022/06/16 11:11:57;;;;;;;17.90;7.57;;;;;;;28.47;57.80;95691.47;4989371;28;20039;-75
2022/06/16 11:14:29;;;;;;;14.98;6.90;;;;;;;28.72;53.81;95693.53;4989974;28;20520;-75
2022/06/16 11:16:56;;;;;;;16.17;7.28;;;;;;;29.21;53.25;95686.63;4988596;28;20084;-75
2022/06/16 11:19:36;;;;;;;11.32;6.57;;;;;;;29.26;52.82;95684.75;4989765;28;20252;-75
2022/06/16 11:22:04;;;;;;;15.43;7.25;;;;;;;29.15;50.06;95690.91;4988895;28;20046;-75
2022/06/16 11:24:33;;;;;;;13.63;6.57;;;;;;;29.62;46.82;95685.47;4987973;28;20046;-75
2022/06/16 11:27:09;;;;;;;16.90;6.68;;;;;;;28.90;48.69;95674.59;4989861;28;20409;-75
2022/06/16 11:29:36;;;;;;;10.45;6.28;;;;;;;29.25;44.82;95672.34;4989231;28;20412;-75
2022/06/16 11:32:13;;;;;;;14.32;6.10;;;;;;;29.95;43.39;95669.19;4989069;28;20042;-75
2022/06/16 11:34:41;;;;;;;10.48;6.60;;;;;;;29.45;42.70;95676.22;4989703;28;20050;-75
2022/06/16 11:37:07;;;;;;;15.27;6.50;;;;;;;28.69;45.02;95669.91;4989853;28;20058;-75
2022/06/16 11:39:51;;;;;;;12.27;6.75;;;;;;;29.63;45.53;95670.75;4988888;28;20157;-75
2022/06/16 11:42:19;;;;;;;12.38;7.15;;;;;;;30.54;42.60;95674.81;4988670;28;20038;-75
2022/06/16 11:44:52;;;;;;;11.77;7.03;;;;;;;29.52;42.34;95681.63;4989617;28;20389;-75
2022/06/16 11:47:48;;;;;;;9.57;6.10;;;;;;;29.28;41.92;95683.19;4990186;28;20129;-75
2022/06/16 11:50:49;;;;;;;13.10;6.88;;;;;;;30.01;39.07;95683.88;4989734;28;20536;-75
2022/06/16 11:53:33;;;;;;;10.25;6.72;;;;;;;29.45;38.73;95670.81;4987913;28;20046;-75
2022/06/16 11:56:01;;;;;;;;;;;;;;;30.41;39.71;95662.81;4990146;28;20042;-75
2022/06/16 11:58:51;;;;;;;15.68;6.22;;;;;;;31.29;38.38;95669.28;4989486;28;19925;-75
2022/06/16 12:01:26;;;;;;;8.90;5.82;;;;;;;31.18;38.32;95653.84;4995679;28;20057;-75